Time,TemperatureF,DewpointF,PressureIn,WindDirection,WindDirectionDegrees,WindSpeedMPH,WindSpeedGustMPH,Humidity,HourlyPrecipIn,Conditions,Clouds,dailyrainin,SoftwareType,DateUTC
2013-03-15 00:13:00,55.4,29.6,29.68,NNW,338,2.9,2.9,37,0.00,,---,0.00,VWS V14.01,2013-03-15 06:13:00,
2013-03-15 00:28:00,55.6,29.7,29.68,WNW,292,1.3,2.9,37,0.00,,---,0.00,VWS V14.01,2013-03-15 06:28:00,
2013-03-15 00:43:00,54.5,29.4,29.68,NNW,338,0.0,1.3,38,0.00,,---,0.00,VWS V14.01,2013-03-15 06:43:00,
2013-03-15 00:58:00,53.4,28.5,29.68,NNW,338,0.0,0.0,38,0.00,,---,0.00,VWS V14.01,2013-03-15 06:58:00,
2013-03-15 01:13:00,52.9,28.0,29.68,West,270,1.1,1.1,38,0.00,,---,0.00,VWS V14.01,2013-03-15 07:13:00,
2013-03-15 01:28:00,53.1,28.1,29.68,NW,315,0.9,1.1,38,0.00,,---,0.00,VWS V14.01,2013-03-15 07:28:00,
2013-03-15 01:58:00,50.4,26.4,29.68,NE,45,2.5,2.5,39,0.00,,---,0.00,VWS V14.01,2013-03-15 07:58:00,
2013-03-15 02:13:00,49.1,25.2,29.68,South,180,0.0,2.5,39,0.00,,---,0.00,VWS V14.01,2013-03-15 08:13:00,
2013-03-15 02:28:00,47.8,24.1,29.68,South,180,0.0,0.0,39,0.00,,---,0.00,VWS V14.01,2013-03-15 08:28:00,
2013-03-15 02:43:00,48.0,26.0,29.65,South,180,0.0,0.0,42,0.00,,---,0.00,VWS V14.01,2013-03-15 08:43:00,
2013-03-15 02:58:00,47.5,25.5,29.62,NE,45,0.0,0.0,42,0.00,,---,0.00,VWS V14.01,2013-03-15 08:58:00,
2013-03-15 03:13:00,46.6,24.7,29.62,SE,135,0.0,0.0,42,0.00,,---,0.00,VWS V14.01,2013-03-15 09:13:00,
2013-03-15 03:28:00,45.1,24.0,29.62,SE,135,0.0,0.0,43,0.00,,---,0.00,VWS V14.01,2013-03-15 09:28:00,
2013-03-15 03:43:00,46.0,25.4,29.62,NE,45,2.5,2.5,44,0.00,,---,0.00,VWS V14.01,2013-03-15 09:43:00,
2013-03-15 03:58:00,45.1,24.5,29.62,NE,45,0.0,2.5,44,0.00,,---,0.00,VWS V14.01,2013-03-15 09:58:00,
2013-03-15 04:13:00,43.7,23.8,29.62,South,180,0.0,0.0,45,0.00,,---,0.00,VWS V14.01,2013-03-15 10:13:00,
2013-03-15 04:28:00,42.8,23.0,29.62,South,180,0.0,0.0,45,0.00,,---,0.00,VWS V14.01,2013-03-15 10:28:00,
2013-03-15 04:43:00,41.9,22.6,29.59,South,180,0.0,0.0,46,0.00,,---,0.00,VWS V14.01,2013-03-15 10:43:00,
2013-03-15 04:58:00,42.4,24.1,29.59,NE,45,2.5,2.5,48,0.00,,---,0.00,VWS V14.01,2013-03-15 10:58:00,
2013-03-15 05:13:00,43.3,25.0,29.59,NE,45,2.9,2.9,48,0.00,,---,0.00,VWS V14.01,2013-03-15 11:13:00,
2013-03-15 05:28:00,43.5,25.1,29.59,ESE,112,0.0,2.9,48,0.00,,---,0.00,VWS V14.01,2013-03-15 11:28:00,
2013-03-15 05:43:00,43.5,25.6,29.56,NNE,22,0.0,0.0,49,0.00,,---,0.00,VWS V14.01,2013-03-15 11:43:00,
2013-03-15 05:58:00,42.3,24.5,29.59,WNW,292,0.0,0.0,49,0.00,,---,0.00,VWS V14.01,2013-03-15 11:58:00,
2013-03-15 06:13:00,41.5,23.8,29.56,WNW,292,0.0,0.0,49,0.00,,---,0.00,VWS V14.01,2013-03-15 12:13:00,
2013-03-15 06:28:00,41.2,24.0,29.59,WNW,292,0.0,0.0,50,0.00,,---,0.00,VWS V14.01,2013-03-15 12:28:00,
2013-03-15 06:58:00,44.1,27.6,29.56,South,180,0.0,0.0,52,0.00,,---,0.00,VWS V14.01,2013-03-15 12:58:00,
2013-03-15 07:13:00,45.9,28.3,29.56,NW,315,0.0,0.0,50,0.00,,---,0.00,VWS V14.01,2013-03-15 13:13:00,
2013-03-15 07:28:00,47.5,29.3,29.56,NNW,338,2.9,2.9,49,0.00,,---,0.00,VWS V14.01,2013-03-15 13:28:00,
2013-03-15 07:43:00,48.0,28.8,29.56,NNW,338,0.0,2.9,47,0.00,,---,0.00,VWS V14.01,2013-03-15 13:43:00,
2013-03-15 07:58:00,51.8,31.1,29.56,SE,135,0.9,0.9,45,0.00,,---,0.00,VWS V14.01,2013-03-15 13:58:00,
2013-03-15 08:13:00,54.9,32.8,29.56,East,90,2.0,2.0,43,0.00,,---,0.00,VWS V14.01,2013-03-15 14:13:00,
2013-03-15 08:28:00,57.0,34.2,29.56,SSE,158,0.9,2.0,42,0.00,,---,0.00,VWS V14.01,2013-03-15 14:28:00,
2013-03-15 08:43:00,60.6,36.2,29.56,NE,45,2.7,2.7,40,0.00,,---,0.00,VWS V14.01,2013-03-15 14:43:00,
2013-03-15 08:58:00,63.7,38.3,29.56,East,90,0.9,2.7,39,0.00,,---,0.00,VWS V14.01,2013-03-15 14:58:00,
2013-03-15 09:13:00,66.4,39.3,29.56,ENE,68,1.1,1.1,37,0.00,,---,0.00,VWS V14.01,2013-03-15 15:13:00,
2013-03-15 09:28:00,66.7,39.7,29.56,North,0,1.3,1.3,37,0.00,,---,0.00,VWS V14.01,2013-03-15 15:28:00,
2013-03-15 09:43:00,63.9,36.4,29.59,NNW,338,5.4,5.4,36,0.00,,---,0.00,VWS V14.01,2013-03-15 15:43:00,
2013-03-15 09:58:00,62.6,36.7,29.59,NNW,338,4.3,5.4,38,0.00,,---,0.00,VWS V14.01,2013-03-15 15:58:00,
2013-03-15 10:13:00,61.3,36.2,29.59,North,0,4.3,4.3,39,0.00,,---,0.00,VWS V14.01,2013-03-15 16:13:00,
2013-03-15 10:28:00,61.7,36.5,29.62,North,0,4.3,4.3,39,0.00,,---,0.00,VWS V14.01,2013-03-15 16:28:00,
2013-03-15 10:43:00,62.8,36.8,29.62,North,0,5.6,5.6,38,0.00,,---,0.00,VWS V14.01,2013-03-15 16:43:00,
2013-03-15 10:58:00,63.9,37.8,29.59,NW,315,3.6,5.6,38,0.00,,---,0.00,VWS V14.01,2013-03-15 16:58:00,
2013-03-15 11:13:00,65.7,37.3,29.59,NE,45,6.0,6.0,35,0.00,,---,0.00,VWS V14.01,2013-03-15 17:13:00,
2013-03-15 11:28:00,65.8,37.5,29.59,NW,315,2.5,6.0,35,0.00,,---,0.00,VWS V14.01,2013-03-15 17:28:00,
2013-03-15 11:43:00,65.8,36.0,29.56,East,90,4.9,4.9,33,0.00,,---,0.00,VWS V14.01,2013-03-15 17:43:00,
2013-03-15 11:58:00,66.2,37.8,29.56,North,0,2.5,4.9,35,0.00,,---,0.00,VWS V14.01,2013-03-15 17:58:00,
2013-03-15 12:13:00,67.3,36.4,29.56,NW,315,2.9,2.9,32,0.00,,---,0.00,VWS V14.01,2013-03-15 18:13:00,
2013-03-15 12:28:00,70.3,39.1,29.56,NE,45,3.4,3.4,32,0.00,,---,0.00,VWS V14.01,2013-03-15 18:28:00,
2013-03-15 12:43:00,71.8,37.8,29.56,NNW,338,8.7,8.7,29,0.00,,---,0.00,VWS V14.01,2013-03-15 18:43:00,
2013-03-15 12:58:00,73.0,38.9,29.56,NNW,338,9.6,9.6,29,0.00,,---,0.00,VWS V14.01,2013-03-15 18:58:00,
2013-03-15 13:13:00,74.1,39.0,29.56,NW,315,6.0,9.6,28,0.00,,---,0.00,VWS V14.01,2013-03-15 19:13:00,
2013-03-15 13:28:00,73.6,38.5,29.56,NW,315,9.8,9.8,28,0.00,,---,0.00,VWS V14.01,2013-03-15 19:28:00,
2013-03-15 13:43:00,75.6,40.2,29.56,NNE,22,8.1,9.8,28,0.00,,---,0.00,VWS V14.01,2013-03-15 19:43:00,
2013-03-15 13:58:00,69.6,36.8,29.56,NW,315,10.7,10.7,30,0.00,,---,0.00,VWS V14.01,2013-03-15 19:58:00,
2013-03-15 14:13:00,70.0,36.3,29.56,NNW,338,7.4,10.7,29,0.00,,---,0.00,VWS V14.01,2013-03-15 20:13:00,
2013-03-15 14:43:00,71.4,37.5,29.56,NNW,338,13.6,13.6,29,0.00,,---,0.00,VWS V14.01,2013-03-15 20:43:00,
2013-03-15 14:58:00,71.4,37.5,29.56,NW,315,8.5,13.6,29,0.00,,---,0.00,VWS V14.01,2013-03-15 20:58:00,
2013-03-15 15:13:00,70.3,36.6,29.53,NNW,338,8.7,8.7,29,0.00,,---,0.00,VWS V14.01,2013-03-15 21:13:00,
2013-03-15 15:28:00,69.4,36.7,29.56,NNW,338,6.5,8.7,30,0.00,,---,0.00,VWS V14.01,2013-03-15 21:28:00,
2013-03-15 15:43:00,67.8,35.3,29.56,North,0,7.6,7.6,30,0.00,,---,0.00,VWS V14.01,2013-03-15 21:43:00,
2013-03-15 15:58:00,66.9,34.5,29.56,North,0,10.1,10.1,30,0.00,,---,0.00,VWS V14.01,2013-03-15 21:58:00,
2013-03-15 16:13:00,66.4,34.0,29.59,NW,315,9.8,10.1,30,0.00,,---,0.00,VWS V14.01,2013-03-15 22:13:00,
2013-03-15 16:28:00,66.7,34.3,29.59,WNW,292,7.2,9.8,30,0.00,,---,0.00,VWS V14.01,2013-03-15 22:28:00,
2013-03-15 16:43:00,66.4,34.0,29.59,NNW,338,3.6,7.2,30,0.00,,---,0.00,VWS V14.01,2013-03-15 22:43:00,
2013-03-15 16:58:00,63.0,31.9,29.59,NNE,22,5.4,5.4,31,0.00,,---,0.00,VWS V14.01,2013-03-15 22:58:00,
2013-03-15 17:13:00,61.3,30.5,29.59,North,0,3.1,5.4,31,0.00,,---,0.00,VWS V14.01,2013-03-15 23:13:00,
2013-03-15 17:28:00,59.5,29.7,29.62,NW,315,8.1,8.1,32,0.00,,---,0.00,VWS V14.01,2013-03-15 23:28:00,
2013-03-15 17:43:00,58.3,28.6,29.62,North,0,3.4,8.1,32,0.00,,---,0.00,VWS V14.01,2013-03-15 23:43:00,
2013-03-15 17:58:00,57.4,29.3,29.62,NNW,338,3.1,3.4,34,0.00,,---,0.00,VWS V14.01,2013-03-15 23:58:00,
2013-03-15 18:13:00,56.7,29.3,29.62,NNW,338,5.6,5.6,35,0.00,,---,0.00,VWS V14.01,2013-03-16 00:13:00,
2013-03-15 18:28:00,54.3,30.5,29.65,NE,45,6.3,6.3,40,0.00,,---,0.00,VWS V14.01,2013-03-16 00:28:00,
2013-03-15 18:43:00,52.7,29.7,29.68,ENE,68,5.8,6.3,41,0.00,,---,0.00,VWS V14.01,2013-03-16 00:43:00,
2013-03-15 18:58:00,51.3,29.0,29.68,North,0,5.4,5.8,42,0.00,,---,0.00,VWS V14.01,2013-03-16 00:58:00,
2013-03-15 19:13:00,50.4,28.7,29.68,NE,45,3.1,5.4,43,0.00,,---,0.00,VWS V14.01,2013-03-16 01:13:00,
2013-03-15 19:28:00,50.0,29.5,29.65,NW,315,4.7,4.7,45,0.00,,---,0.00,VWS V14.01,2013-03-16 01:28:00,
2013-03-15 19:43:00,49.3,29.4,29.68,North,0,3.8,4.7,46,0.00,,---,0.00,VWS V14.01,2013-03-16 01:43:00,
2013-03-15 19:55:00,48.4,28.6,29.65,NNW,338,5.6,5.6,46,0.00,,---,0.00,VWS V14.01,2013-03-16 01:55:00,
2013-03-15 19:56:00,48.4,28.6,29.65,NNW,338,5.6,5.6,46,0.00,,---,0.00,VWS V14.01,2013-03-16 01:56:00,
2013-03-15 19:57:00,48.4,28.6,29.65,NNE,22,6.3,6.3,46,0.00,,---,0.00,VWS V14.01,2013-03-16 01:57:00,
2013-03-15 19:58:00,48.4,28.6,29.65,NNW,338,3.1,6.3,46,0.00,,---,0.00,VWS V14.01,2013-03-16 01:58:00,
2013-03-15 19:59:00,48.4,28.6,29.65,NW,315,5.8,5.8,46,0.00,,---,0.00,VWS V14.01,2013-03-16 01:59:00,
2013-03-15 20:00:00,48.2,28.4,29.71,North,0,3.8,5.8,46,0.00,,---,0.00,VWS V14.01,2013-03-16 02:00:00,
2013-03-15 20:01:00,48.2,28.4,29.71,NE,45,7.4,7.4,46,0.00,,---,0.00,VWS V14.01,2013-03-16 02:01:00,
2013-03-15 20:02:00,48.2,28.4,29.71,NNW,338,10.7,10.7,46,0.00,,---,0.00,VWS V14.01,2013-03-16 02:02:00,
2013-03-15 20:03:00,48.2,28.4,29.71,North,0,3.4,3.4,46,0.00,,---,0.00,VWS V14.01,2013-03-16 02:03:00,
2013-03-15 20:04:00,48.2,28.4,29.71,NE,45,8.5,8.5,46,0.00,,---,0.00,VWS V14.01,2013-03-16 02:04:00,
2013-03-15 20:05:00,48.2,28.4,29.71,NW,315,6.5,8.5,46,0.00,,---,0.00,VWS V14.01,2013-03-16 02:05:00,
2013-03-15 20:06:00,48.0,28.8,29.71,WNW,292,2.9,6.5,47,0.00,,---,0.00,VWS V14.01,2013-03-16 02:06:00,
2013-03-15 20:07:00,48.0,28.8,29.71,NW,315,5.6,7.4,47,0.00,,---,0.00,VWS V14.01,2013-03-16 02:07:00,
2013-03-15 20:08:00,48.0,28.8,29.71,East,90,3.1,7.2,47,0.00,,---,0.00,VWS V14.01,2013-03-16 02:08:00,
2013-03-15 20:09:00,48.0,28.8,29.71,NNE,22,4.9,6.7,47,0.00,,---,0.00,VWS V14.01,2013-03-16 02:09:00,
2013-03-15 20:10:00,47.8,28.6,29.71,NNW,338,3.6,5.8,47,0.00,,---,0.00,VWS V14.01,2013-03-16 02:10:00,
2013-03-15 20:11:00,47.8,28.6,29.71,ENE,68,8.1,8.5,47,0.00,,---,0.00,VWS V14.01,2013-03-16 02:11:00,
2013-03-15 20:12:00,47.7,28.4,29.71,NW,315,8.5,8.5,47,0.00,,---,0.00,VWS V14.01,2013-03-16 02:12:00,
2013-03-15 20:13:00,47.7,28.4,29.71,NNW,338,10.3,10.3,47,0.00,,---,0.00,VWS V14.01,2013-03-16 02:13:00,
2013-03-15 20:14:00,47.7,28.4,29.71,North,0,5.6,10.3,47,0.00,,---,0.00,VWS V14.01,2013-03-16 02:14:00,
2013-03-15 20:15:00,47.7,28.4,29.71,NNW,338,5.6,10.3,47,0.00,,---,0.00,VWS V14.01,2013-03-16 02:15:00,
2013-03-15 20:16:00,47.7,28.4,29.71,NNW,338,2.0,5.6,47,0.00,,---,0.00,VWS V14.01,2013-03-16 02:16:00,
2013-03-15 20:17:00,47.5,28.3,29.71,North,0,4.3,6.0,47,0.00,,---,0.00,VWS V14.01,2013-03-16 02:17:00,
2013-03-15 20:18:00,47.5,28.3,29.71,North,0,4.9,5.6,47,0.00,,---,0.00,VWS V14.01,2013-03-16 02:18:00,
2013-03-15 20:19:00,47.3,28.6,29.71,NNW,338,3.8,7.2,48,0.00,,---,0.00,VWS V14.01,2013-03-16 02:19:00,
2013-03-15 20:20:00,47.3,28.6,29.71,NNE,22,3.1,9.4,48,0.00,,---,0.00,VWS V14.01,2013-03-16 02:20:00,
2013-03-15 20:21:00,47.3,28.6,29.71,NW,315,6.5,7.6,48,0.00,,---,0.00,VWS V14.01,2013-03-16 02:21:00,
2013-03-15 20:22:00,47.3,28.6,29.71,North,0,3.8,8.1,48,0.00,,---,0.00,VWS V14.01,2013-03-16 02:22:00,
2013-03-15 20:23:00,47.3,28.6,29.71,NW,315,3.6,3.8,48,0.00,,---,0.00,VWS V14.01,2013-03-16 02:23:00,
2013-03-15 20:24:00,47.1,28.5,29.71,NNE,22,4.3,6.3,48,0.00,,---,0.00,VWS V14.01,2013-03-16 02:24:00,
2013-03-15 20:25:00,47.1,28.5,29.71,WNW,292,5.6,7.8,48,0.00,,---,0.00,VWS V14.01,2013-03-16 02:25:00,
2013-03-15 20:26:00,46.9,28.3,29.71,NNW,338,3.1,5.6,48,0.00,,---,0.00,VWS V14.01,2013-03-16 02:26:00,
2013-03-15 20:27:00,46.9,28.3,29.71,ENE,68,2.0,4.3,48,0.00,,---,0.00,VWS V14.01,2013-03-16 02:27:00,
2013-03-15 20:28:00,46.8,28.1,29.71,East,90,3.6,5.8,48,0.00,,---,0.00,VWS V14.01,2013-03-16 02:28:00,
2013-03-15 20:29:00,46.8,28.1,29.71,WNW,292,2.9,5.4,48,0.00,,---,0.00,VWS V14.01,2013-03-16 02:29:00,
2013-03-15 20:30:00,46.6,28.0,29.71,NNW,338,2.9,2.9,48,0.00,,---,0.00,VWS V14.01,2013-03-16 02:30:00,
2013-03-15 20:31:00,46.6,28.0,29.71,North,0,2.7,4.3,48,0.00,,---,0.00,VWS V14.01,2013-03-16 02:31:00,
2013-03-15 20:32:00,46.4,28.3,29.71,NNW,338,5.4,5.8,49,0.00,,---,0.00,VWS V14.01,2013-03-16 02:32:00,
2013-03-15 20:33:00,46.4,28.3,29.71,NNW,338,5.4,7.4,49,0.00,,---,0.00,VWS V14.01,2013-03-16 02:33:00,
2013-03-15 20:34:00,46.2,28.1,29.71,NE,45,6.0,6.0,49,0.00,,---,0.00,VWS V14.01,2013-03-16 02:34:00,
2013-03-15 20:35:00,46.2,28.1,29.71,NNW,338,2.5,6.0,49,0.00,,---,0.00,VWS V14.01,2013-03-16 02:35:00,
2013-03-15 20:36:00,46.0,28.0,29.71,WNW,292,2.5,3.8,49,0.00,,---,0.00,VWS V14.01,2013-03-16 02:36:00,
2013-03-15 20:37:00,46.0,28.0,29.71,North,0,2.5,3.4,49,0.00,,---,0.00,VWS V14.01,2013-03-16 02:37:00,
2013-03-15 20:38:00,45.9,28.3,29.71,NE,45,4.9,5.4,50,0.00,,---,0.00,VWS V14.01,2013-03-16 02:38:00,
2013-03-15 20:39:00,45.9,28.3,29.71,NNE,22,4.9,4.9,50,0.00,,---,0.00,VWS V14.01,2013-03-16 02:39:00,
2013-03-15 20:40:00,45.7,28.1,29.71,NNW,338,6.0,7.6,50,0.00,,---,0.00,VWS V14.01,2013-03-16 02:40:00,
2013-03-15 20:41:00,45.7,28.6,29.71,NNW,338,7.2,7.8,51,0.00,,---,0.00,VWS V14.01,2013-03-16 02:41:00,
2013-03-15 20:42:00,45.5,28.9,29.71,NNW,338,5.6,8.7,52,0.00,,---,0.00,VWS V14.01,2013-03-16 02:42:00,
2013-03-15 20:43:00,45.3,28.8,29.71,NE,45,8.7,8.7,52,0.00,,---,0.00,VWS V14.01,2013-03-16 02:43:00,
2013-03-15 20:44:00,45.3,28.8,29.71,NNW,338,5.6,8.7,52,0.00,,---,0.00,VWS V14.01,2013-03-16 02:44:00,
2013-03-15 20:45:00,45.1,28.6,29.71,ENE,68,4.3,6.7,52,0.00,,---,0.00,VWS V14.01,2013-03-16 02:45:00,
2013-03-15 20:46:00,45.1,28.6,29.71,NNW,338,6.0,6.5,52,0.00,,---,0.00,VWS V14.01,2013-03-16 02:46:00,
2013-03-15 20:47:00,45.0,28.9,29.71,NW,315,5.8,7.6,53,0.00,,---,0.00,VWS V14.01,2013-03-16 02:47:00,
2013-03-15 20:48:00,44.8,28.7,29.71,WNW,292,4.9,7.6,53,0.00,,---,0.00,VWS V14.01,2013-03-16 02:48:00,
2013-03-15 20:49:00,44.8,28.7,29.71,North,0,5.8,7.4,53,0.00,,---,0.00,VWS V14.01,2013-03-16 02:49:00,
2013-03-15 20:50:00,44.4,28.4,29.71,NNE,22,6.0,6.0,53,0.00,,---,0.00,VWS V14.01,2013-03-16 02:50:00,
2013-03-15 20:51:00,44.4,28.8,29.71,North,0,4.3,9.8,54,0.00,,---,0.00,VWS V14.01,2013-03-16 02:51:00,
2013-03-15 20:52:00,44.2,28.7,29.71,WSW,248,6.3,6.3,54,0.00,,---,0.00,VWS V14.01,2013-03-16 02:52:00,
2013-03-15 20:53:00,44.2,28.7,29.71,NNE,22,3.8,6.3,54,0.00,,---,0.00,VWS V14.01,2013-03-16 02:53:00,
2013-03-15 20:54:00,44.1,28.5,29.71,NNE,22,6.7,6.7,54,0.00,,---,0.00,VWS V14.01,2013-03-16 02:54:00,
2013-03-15 20:55:00,43.9,28.3,29.71,NE,45,7.4,7.4,54,0.00,,---,0.00,VWS V14.01,2013-03-16 02:55:00,
2013-03-15 20:56:00,43.9,28.3,29.71,NNW,338,10.3,10.3,54,0.00,,---,0.00,VWS V14.01,2013-03-16 02:56:00,
2013-03-15 20:57:00,43.7,28.2,29.71,North,0,5.4,10.3,54,0.00,,---,0.00,VWS V14.01,2013-03-16 02:57:00,
2013-03-15 20:58:00,43.5,28.4,29.71,NNW,338,6.3,6.5,55,0.00,,---,0.00,VWS V14.01,2013-03-16 02:58:00,
2013-03-15 20:59:00,43.5,28.4,29.71,NW,315,7.8,9.6,55,0.00,,---,0.00,VWS V14.01,2013-03-16 02:59:00,
2013-03-15 21:00:00,48.2,28.4,29.71,NW,315,6.3,7.4,46,0.00,,---,0.00,VWS V14.01,2013-03-16 03:00:00,
2013-03-15 21:01:00,43.3,28.3,29.74,North,0,3.6,6.3,55,0.00,,---,0.00,VWS V14.01,2013-03-16 03:01:00,
2013-03-15 21:02:00,43.2,28.1,29.74,North,0,5.4,8.5,55,0.00,,---,0.00,VWS V14.01,2013-03-16 03:02:00,
2013-03-15 21:03:00,43.2,28.1,29.74,North,0,6.3,6.3,55,0.00,,---,0.00,VWS V14.01,2013-03-16 03:03:00,
2013-03-15 21:04:00,43.0,27.9,29.74,NW,315,5.8,10.1,55,0.00,,---,0.00,VWS V14.01,2013-03-16 03:04:00,
2013-03-15 21:05:00,48.0,28.8,29.71,NNW,338,6.5,6.5,47,0.00,,---,0.00,VWS V14.01,2013-03-16 03:05:00,
2013-03-15 21:06:00,42.8,27.8,29.74,NNW,338,8.7,8.7,55,0.00,,---,0.00,VWS V14.01,2013-03-16 03:06:00,
2013-03-15 21:07:00,42.8,28.2,29.74,North,0,2.9,10.3,56,0.00,,---,0.00,VWS V14.01,2013-03-16 03:07:00,
2013-03-15 21:08:00,42.8,28.2,29.74,NNE,22,4.0,5.8,56,0.00,,---,0.00,VWS V14.01,2013-03-16 03:08:00,
2013-03-15 21:09:00,42.6,28.0,29.74,North,0,3.4,6.3,56,0.00,,---,0.00,VWS V14.01,2013-03-16 03:09:00,
2013-03-15 21:10:00,47.8,28.6,29.71,ENE,68,8.1,8.1,47,0.00,,---,0.00,VWS V14.01,2013-03-16 03:10:00,
2013-03-15 21:11:00,42.6,28.0,29.74,NNW,338,5.4,6.5,56,0.00,,---,0.00,VWS V14.01,2013-03-16 03:11:00,
2013-03-15 21:12:00,42.4,28.3,29.74,NNE,22,7.8,7.8,57,0.00,,---,0.00,VWS V14.01,2013-03-16 03:12:00,
2013-03-15 21:13:00,42.4,28.3,29.74,ESE,112,5.4,7.8,57,0.00,,---,0.00,VWS V14.01,2013-03-16 03:13:00,
2013-03-15 21:14:00,42.4,28.3,29.74,North,0,3.8,8.5,57,0.00,,---,0.00,VWS V14.01,2013-03-16 03:14:00,
2013-03-15 21:15:00,47.7,28.4,29.71,NW,315,5.4,5.4,47,0.00,,---,0.00,VWS V14.01,2013-03-16 03:15:00,
2013-03-15 21:16:00,42.3,28.1,29.74,NNW,338,2.9,7.2,57,0.00,,---,0.00,VWS V14.01,2013-03-16 03:16:00,
2013-03-15 21:17:00,42.3,28.1,29.74,NNE,22,6.9,6.9,57,0.00,,---,0.00,VWS V14.01,2013-03-16 03:17:00,
2013-03-15 21:18:00,42.3,28.1,29.74,NNE,22,5.6,6.9,57,0.00,,---,0.00,VWS V14.01,2013-03-16 03:18:00,
2013-03-15 21:19:00,42.1,28.0,29.74,NNW,338,12.1,12.1,57,0.00,,---,0.00,VWS V14.01,2013-03-16 03:19:00,
2013-03-15 21:20:00,47.3,28.6,29.71,North,0,4.5,6.5,48,0.00,,---,0.00,VWS V14.01,2013-03-16 03:20:00,
2013-03-15 21:21:00,41.4,27.7,29.74,NNE,22,4.9,7.8,58,0.00,,---,0.00,VWS V14.01,2013-03-16 03:21:00,
2013-03-15 21:22:00,41.2,27.5,29.74,NNW,338,6.3,11.0,58,0.00,,---,0.00,VWS V14.01,2013-03-16 03:22:00,
2013-03-15 21:23:00,40.8,27.2,29.74,North,0,6.0,6.3,58,0.00,,---,0.00,VWS V14.01,2013-03-16 03:23:00,
2013-03-15 21:24:00,40.6,27.5,29.74,NE,45,6.3,7.6,59,0.00,,---,0.00,VWS V14.01,2013-03-16 03:24:00,
2013-03-15 21:25:00,46.9,28.3,29.71,NNW,338,4.3,4.3,48,0.00,,---,0.00,VWS V14.01,2013-03-16 03:25:00,
2013-03-15 21:26:00,40.3,26.7,29.74,NW,315,8.1,10.3,58,0.00,,---,0.00,VWS V14.01,2013-03-16 03:26:00,
2013-03-15 21:27:00,39.7,26.6,29.74,North,0,5.4,8.1,59,0.00,,---,0.00,VWS V14.01,2013-03-16 03:27:00,
2013-03-15 21:28:00,39.7,26.6,29.74,NNW,338,3.1,5.8,59,0.00,,---,0.00,VWS V14.01,2013-03-16 03:28:00,
2013-03-15 21:29:00,39.4,26.3,29.74,NNW,338,5.8,8.5,59,0.00,,---,0.00,VWS V14.01,2013-03-16 03:29:00,
2013-03-15 21:30:00,46.6,28.0,29.71,North,0,3.4,3.4,48,0.00,,---,0.00,VWS V14.01,2013-03-16 03:30:00,
2013-03-15 21:31:00,39.2,26.5,29.74,NNW,338,6.0,8.7,60,0.00,,---,0.00,VWS V14.01,2013-03-16 03:31:00,
2013-03-15 21:32:00,38.8,26.2,29.74,North,0,5.8,6.0,60,0.00,,---,0.00,VWS V14.01,2013-03-16 03:32:00,
2013-03-15 21:33:00,38.7,26.0,29.74,WNW,292,3.4,7.2,60,0.00,,---,0.00,VWS V14.01,2013-03-16 03:33:00,
2013-03-15 21:34:00,38.7,26.4,29.74,North,0,5.4,5.8,61,0.00,,---,0.00,VWS V14.01,2013-03-16 03:34:00,
2013-03-15 21:35:00,46.0,28.0,29.71,NW,315,3.1,3.1,49,0.00,,---,0.00,VWS V14.01,2013-03-16 03:35:00,
2013-03-15 21:36:00,38.1,25.9,29.74,NNW,338,4.7,7.8,61,0.00,,---,0.00,VWS V14.01,2013-03-16 03:36:00,
2013-03-15 21:37:00,38.1,26.6,29.74,SE,135,6.0,12.3,63,0.00,,---,0.00,VWS V14.01,2013-03-16 03:37:00,
2013-03-15 21:38:00,37.9,26.1,29.74,North,0,6.3,6.3,62,0.00,,---,0.00,VWS V14.01,2013-03-16 03:38:00,
2013-03-15 21:39:00,37.9,26.5,29.74,North,0,5.4,10.5,63,0.00,,---,0.00,VWS V14.01,2013-03-16 03:39:00,
2013-03-15 21:40:00,45.5,28.4,29.71,ENE,68,6.3,7.2,51,0.00,,---,0.00,VWS V14.01,2013-03-16 03:40:00,
2013-03-15 21:41:00,37.6,26.1,29.74,NW,315,4.3,4.9,63,0.00,,---,0.00,VWS V14.01,2013-03-16 03:41:00,
2013-03-15 21:42:00,37.6,26.1,29.74,North,0,3.8,5.6,63,0.00,,---,0.00,VWS V14.01,2013-03-16 03:42:00,
2013-03-15 21:43:00,37.4,26.4,29.74,NNE,22,5.4,5.8,64,0.00,,---,0.00,VWS V14.01,2013-03-16 03:43:00,
2013-03-15 21:44:00,37.4,26.4,29.74,North,0,4.3,5.8,64,0.00,,---,0.00,VWS V14.01,2013-03-16 03:44:00,
2013-03-15 21:45:00,45.1,28.6,29.71,NNW,338,6.0,6.0,52,0.00,,---,0.00,VWS V14.01,2013-03-16 03:45:00,
2013-03-15 21:46:00,37.0,26.4,29.74,NNW,338,4.7,8.7,65,0.00,,---,0.00,VWS V14.01,2013-03-16 03:46:00,
2013-03-15 21:47:00,37.0,26.4,29.74,ENE,68,6.3,8.7,65,0.00,,---,0.00,VWS V14.01,2013-03-16 03:47:00,
2013-03-15 21:48:00,36.9,26.2,29.74,WNW,292,7.2,7.2,65,0.00,,---,0.00,VWS V14.01,2013-03-16 03:48:00,
2013-03-15 21:49:00,36.9,26.2,29.74,WNW,292,3.8,7.4,65,0.00,,---,0.00,VWS V14.01,2013-03-16 03:49:00,
2013-03-15 21:50:00,44.4,28.8,29.71,NNW,338,5.8,5.8,54,0.00,,---,0.00,VWS V14.01,2013-03-16 03:50:00,
2013-03-15 21:51:00,36.7,26.0,29.74,North,0,5.6,5.6,65,0.00,,---,0.00,VWS V14.01,2013-03-16 03:51:00,
2013-03-15 21:52:00,36.5,25.9,29.74,NNE,22,4.3,5.6,65,0.00,,---,0.00,VWS V14.01,2013-03-16 03:52:00,
2013-03-15 21:53:00,36.5,26.2,29.74,NNW,338,5.8,7.8,66,0.00,,---,0.00,VWS V14.01,2013-03-16 03:53:00,
2013-03-15 21:54:00,36.3,26.1,29.74,North,0,4.9,5.8,66,0.00,,---,0.00,VWS V14.01,2013-03-16 03:54:00,
2013-03-15 21:55:00,43.7,28.2,29.71,North,0,9.8,10.3,54,0.00,,---,0.00,VWS V14.01,2013-03-16 03:55:00,
2013-03-15 21:56:00,36.3,26.1,29.74,NE,45,8.1,8.1,66,0.00,,---,0.00,VWS V14.01,2013-03-16 03:56:00,
2013-03-15 21:57:00,36.1,26.2,29.74,ENE,68,2.7,8.1,67,0.00,,---,0.00,VWS V14.01,2013-03-16 03:57:00,
2013-03-15 21:58:00,36.1,26.2,29.74,North,0,7.6,7.6,67,0.00,,---,0.00,VWS V14.01,2013-03-16 03:58:00,
2013-03-15 21:59:00,36.0,25.7,29.74,NNW,338,2.0,7.6,66,0.00,,---,0.00,VWS V14.01,2013-03-16 03:59:00,
2013-03-15 22:00:00,36.0,25.7,29.76,NNW,338,6.3,6.3,66,0.00,,---,0.00,VWS V14.01,2013-03-16 04:00:00,
2013-03-15 22:01:00,36.0,25.7,29.76,North,0,6.5,6.9,66,0.00,,---,0.00,VWS V14.01,2013-03-16 04:01:00,
2013-03-15 22:02:00,43.2,28.1,29.74,WNW,292,7.6,10.3,55,0.00,,---,0.00,VWS V14.01,2013-03-16 04:02:00,
2013-03-15 22:03:00,35.8,25.9,29.76,NNW,338,3.8,7.4,67,0.00,,---,0.00,VWS V14.01,2013-03-16 04:03:00,
2013-03-15 22:04:00,35.8,25.9,29.76,NW,315,6.3,9.4,67,0.00,,---,0.00,VWS V14.01,2013-03-16 04:04:00,
2013-03-15 22:05:00,35.6,26.1,29.76,NNW,338,4.9,6.3,68,0.00,,---,0.00,VWS V14.01,2013-03-16 04:05:00,
2013-03-15 22:06:00,35.6,26.1,29.76,WNW,292,6.0,6.0,68,0.00,,---,0.00,VWS V14.01,2013-03-16 04:06:00,
2013-03-15 22:07:00,42.8,28.2,29.74,SE,135,2.9,5.8,56,0.00,,---,0.00,VWS V14.01,2013-03-16 04:07:00,
2013-03-15 22:08:00,35.6,26.1,29.76,WNW,292,4.3,7.6,68,0.00,,---,0.00,VWS V14.01,2013-03-16 04:08:00,
2013-03-15 22:09:00,35.4,26.3,29.76,NW,315,2.9,4.3,69,0.00,,---,0.00,VWS V14.01,2013-03-16 04:09:00,
2013-03-15 22:10:00,35.4,26.3,29.76,NNW,338,9.2,9.2,69,0.00,,---,0.00,VWS V14.01,2013-03-16 04:10:00,
2013-03-15 22:11:00,35.4,26.3,29.76,NW,315,4.7,9.2,69,0.00,,---,0.00,VWS V14.01,2013-03-16 04:11:00,
2013-03-15 22:12:00,42.4,28.3,29.74,NNW,338,4.9,7.8,57,0.00,,---,0.00,VWS V14.01,2013-03-16 04:12:00,
2013-03-15 22:13:00,35.2,26.1,29.76,NNW,338,5.6,8.5,69,0.00,,---,0.00,VWS V14.01,2013-03-16 04:13:00,
2013-03-15 22:14:00,35.2,26.1,29.76,North,0,4.3,5.6,69,0.00,,---,0.00,VWS V14.01,2013-03-16 04:14:00,
2013-03-15 22:15:00,35.1,25.9,29.76,NNE,22,5.4,5.4,69,0.00,,---,0.00,VWS V14.01,2013-03-16 04:15:00,
2013-03-15 22:16:00,35.1,25.9,29.76,NE,45,5.8,6.5,69,0.00,,---,0.00,VWS V14.01,2013-03-16 04:16:00,
2013-03-15 22:17:00,42.3,28.1,29.74,NW,315,4.3,6.9,57,0.00,,---,0.00,VWS V14.01,2013-03-16 04:17:00,
2013-03-15 22:18:00,35.1,25.9,29.76,NNW,338,6.3,6.3,69,0.00,,---,0.00,VWS V14.01,2013-03-16 04:18:00,
2013-03-15 22:19:00,35.1,26.3,29.76,NW,315,4.0,6.3,70,0.00,,---,0.00,VWS V14.01,2013-03-16 04:19:00,
2013-03-15 22:20:00,34.9,26.1,29.76,NNW,338,5.8,7.2,70,0.00,,---,0.00,VWS V14.01,2013-03-16 04:20:00,
2013-03-15 22:21:00,34.9,26.5,29.76,NE,45,3.4,9.6,71,0.00,,---,0.00,VWS V14.01,2013-03-16 04:21:00,
2013-03-15 22:22:00,40.8,27.2,29.74,NNW,338,3.8,6.3,58,0.00,,---,0.00,VWS V14.01,2013-03-16 04:22:00,
2013-03-15 22:23:00,34.9,26.1,29.76,NW,315,4.3,4.3,70,0.00,,---,0.00,VWS V14.01,2013-03-16 04:23:00,
2013-03-15 22:24:00,34.7,25.9,29.76,North,0,2.9,4.3,70,0.00,,---,0.00,VWS V14.01,2013-03-16 04:24:00,
2013-03-15 22:25:00,34.7,25.9,29.76,North,0,6.5,6.5,70,0.00,,---,0.00,VWS V14.01,2013-03-16 04:25:00,
2013-03-15 22:26:00,34.7,25.9,29.76,NNE,22,2.0,7.8,70,0.00,,---,0.00,VWS V14.01,2013-03-16 04:26:00,
2013-03-15 22:27:00,39.7,26.6,29.74,NW,315,4.7,5.8,59,0.00,,---,0.00,VWS V14.01,2013-03-16 04:27:00,
2013-03-15 22:28:00,34.5,26.1,29.76,NNW,338,4.3,5.6,71,0.00,,---,0.00,VWS V14.01,2013-03-16 04:28:00,
2013-03-15 22:29:00,34.5,26.1,29.76,North,0,2.7,6.9,71,0.00,,---,0.00,VWS V14.01,2013-03-16 04:29:00,
2013-03-15 22:30:00,34.5,26.1,29.76,NW,315,3.8,3.8,71,0.00,,---,0.00,VWS V14.01,2013-03-16 04:30:00,
2013-03-15 22:31:00,34.5,26.1,29.76,NNE,22,3.1,6.0,71,0.00,,---,0.00,VWS V14.01,2013-03-16 04:31:00,
2013-03-15 22:32:00,38.7,26.0,29.74,WNW,292,3.4,7.2,60,0.00,,---,0.00,VWS V14.01,2013-03-16 04:32:00,
2013-03-15 22:33:00,34.5,26.1,29.76,NNE,22,4.0,4.0,71,0.00,,---,0.00,VWS V14.01,2013-03-16 04:33:00,
2013-03-15 22:34:00,34.3,25.6,29.76,NE,45,3.6,4.7,70,0.00,,---,0.00,VWS V14.01,2013-03-16 04:34:00,
2013-03-15 22:35:00,34.3,25.9,29.76,NNW,338,2.7,4.9,71,0.00,,---,0.00,VWS V14.01,2013-03-16 04:35:00,
2013-03-15 22:36:00,34.3,25.9,29.76,NNW,338,4.7,4.7,71,0.00,,---,0.00,VWS V14.01,2013-03-16 04:36:00,
2013-03-15 22:37:00,37.9,26.1,29.74,North,0,6.3,6.3,62,0.00,,---,0.00,VWS V14.01,2013-03-16 04:37:00,
2013-03-15 22:38:00,34.3,25.9,29.76,North,0,3.1,4.9,71,0.00,,---,0.00,VWS V14.01,2013-03-16 04:38:00,
2013-03-15 22:39:00,34.3,25.9,29.76,North,0,5.4,5.4,71,0.00,,---,0.00,VWS V14.01,2013-03-16 04:39:00,
2013-03-15 22:40:00,34.3,26.3,29.76,North,0,5.4,5.4,72,0.00,,---,0.00,VWS V14.01,2013-03-16 04:40:00,
2013-03-15 22:41:00,34.3,25.9,29.76,North,0,2.7,5.4,71,0.00,,---,0.00,VWS V14.01,2013-03-16 04:41:00,
2013-03-15 22:42:00,37.4,26.0,29.74,North,0,5.8,5.8,63,0.00,,---,0.00,VWS V14.01,2013-03-16 04:42:00,
2013-03-15 22:43:00,34.3,26.3,29.76,NNW,338,2.9,4.7,72,0.00,,---,0.00,VWS V14.01,2013-03-16 04:43:00,
2013-03-15 22:44:00,34.3,26.3,29.76,NNE,22,5.6,5.8,72,0.00,,---,0.00,VWS V14.01,2013-03-16 04:44:00,
2013-03-15 22:45:00,34.2,26.1,29.80,NE,45,1.3,5.6,72,0.00,,---,0.00,VWS V14.01,2013-03-16 04:45:00,
2013-03-15 22:46:00,34.3,26.3,29.80,NW,315,3.1,3.8,72,0.00,,---,0.00,VWS V14.01,2013-03-16 04:46:00,
2013-03-15 22:47:00,36.9,26.2,29.74,North,0,4.3,6.3,65,0.00,,---,0.00,VWS V14.01,2013-03-16 04:47:00,
2013-03-15 22:48:00,34.2,25.8,29.80,NNE,22,4.5,4.5,71,0.00,,---,0.00,VWS V14.01,2013-03-16 04:48:00,
2013-03-15 22:49:00,34.3,26.3,29.80,NNE,22,4.3,4.7,72,0.00,,---,0.00,VWS V14.01,2013-03-16 04:49:00,
2013-03-15 22:50:00,34.3,26.3,29.80,NNW,338,3.6,4.3,72,0.00,,---,0.00,VWS V14.01,2013-03-16 04:50:00,
2013-03-15 22:51:00,34.2,26.1,29.80,NW,315,3.1,3.6,72,0.00,,---,0.00,VWS V14.01,2013-03-16 04:51:00,
2013-03-15 22:52:00,36.5,26.2,29.74,NNW,338,7.8,7.8,66,0.00,,---,0.00,VWS V14.01,2013-03-16 04:52:00,
2013-03-15 22:53:00,34.3,26.3,29.80,NNW,338,2.2,5.6,72,0.00,,---,0.00,VWS V14.01,2013-03-16 04:53:00,
2013-03-15 22:54:00,34.2,25.8,29.80,North,0,2.7,3.6,71,0.00,,---,0.00,VWS V14.01,2013-03-16 04:54:00,
2013-03-15 22:55:00,34.3,25.9,29.80,NNW,338,1.1,2.7,71,0.00,,---,0.00,VWS V14.01,2013-03-16 04:55:00,
2013-03-15 22:56:00,34.3,25.9,29.80,NNW,338,1.3,2.2,71,0.00,,---,0.00,VWS V14.01,2013-03-16 04:56:00,
2013-03-15 22:57:00,36.1,25.9,29.74,NW,315,3.1,5.6,66,0.00,,---,0.00,VWS V14.01,2013-03-16 04:57:00,
2013-03-15 22:58:00,34.2,25.8,29.80,NNW,338,2.0,4.0,71,0.00,,---,0.00,VWS V14.01,2013-03-16 04:58:00,
2013-03-15 22:59:00,34.2,25.8,29.80,NE,45,2.7,4.3,71,0.00,,---,0.00,VWS V14.01,2013-03-16 04:59:00,
2013-03-15 23:00:00,34.2,25.8,29.80,NE,45,1.1,2.7,71,0.00,,---,0.00,VWS V14.01,2013-03-16 05:00:00,
2013-03-15 23:01:00,34.2,25.8,29.80,North,0,2.5,2.5,71,0.00,,---,0.00,VWS V14.01,2013-03-16 05:01:00,
2013-03-15 23:02:00,35.8,25.9,29.76,NNE,22,5.4,7.4,67,0.00,,---,0.00,VWS V14.01,2013-03-16 05:02:00,
2013-03-15 23:03:00,34.2,25.8,29.80,North,0,1.6,3.1,71,0.00,,---,0.00,VWS V14.01,2013-03-16 05:03:00,
2013-03-15 23:04:00,34.2,25.8,29.80,NNW,338,1.3,2.9,71,0.00,,---,0.00,VWS V14.01,2013-03-16 05:04:00,
2013-03-15 23:05:00,34.2,25.8,29.80,NNW,338,2.0,2.9,71,0.00,,---,0.00,VWS V14.01,2013-03-16 05:05:00,
2013-03-15 23:06:00,34.0,25.6,29.80,NW,315,2.5,3.8,71,0.00,,---,0.00,VWS V14.01,2013-03-16 05:06:00,
2013-03-15 23:07:00,35.6,26.1,29.76,NNE,22,7.6,7.6,68,0.00,,---,0.00,VWS V14.01,2013-03-16 05:07:00,
2013-03-15 23:08:00,34.0,25.6,29.80,NNW,338,4.0,5.4,71,0.00,,---,0.00,VWS V14.01,2013-03-16 05:08:00,
2013-03-15 23:09:00,34.0,25.6,29.80,NE,45,2.5,4.0,71,0.00,,---,0.00,VWS V14.01,2013-03-16 05:09:00,
2013-03-15 23:10:00,34.0,25.6,29.80,North,0,2.7,2.7,71,0.00,,---,0.00,VWS V14.01,2013-03-16 05:10:00,
2013-03-15 23:11:00,34.0,25.6,29.80,NNE,22,3.6,3.8,71,0.00,,---,0.00,VWS V14.01,2013-03-16 05:11:00,
2013-03-15 23:12:00,35.2,26.1,29.76,NNW,338,5.6,8.5,69,0.00,,---,0.00,VWS V14.01,2013-03-16 05:12:00,
2013-03-15 23:13:00,34.0,25.6,29.80,NW,315,2.9,2.9,71,0.00,,---,0.00,VWS V14.01,2013-03-16 05:13:00,
2013-03-15 23:14:00,34.0,25.6,29.80,NW,315,3.6,3.6,71,0.00,,---,0.00,VWS V14.01,2013-03-16 05:14:00,
2013-03-15 23:15:00,34.0,25.9,29.76,SW,225,4.0,4.0,72,0.00,,---,0.00,VWS V14.01,2013-03-16 05:15:00,
2013-03-15 23:16:00,34.0,25.9,29.76,NW,315,3.1,4.0,72,0.00,,---,0.00,VWS V14.01,2013-03-16 05:16:00,
2013-03-15 23:17:00,35.1,25.9,29.76,North,0,3.4,4.9,69,0.00,,---,0.00,VWS V14.01,2013-03-16 05:17:00,
2013-03-15 23:18:00,34.0,25.6,29.76,NNW,338,0.0,4.3,71,0.00,,---,0.00,VWS V14.01,2013-03-16 05:18:00,
2013-03-15 23:19:00,34.0,25.6,29.76,NNW,338,2.0,3.1,71,0.00,,---,0.00,VWS V14.01,2013-03-16 05:19:00,
2013-03-15 23:20:00,34.0,25.6,29.76,East,90,0.0,2.7,71,0.00,,---,0.00,VWS V14.01,2013-03-16 05:20:00,
2013-03-15 23:21:00,34.0,25.6,29.76,North,0,2.2,3.4,71,0.00,,---,0.00,VWS V14.01,2013-03-16 05:21:00,
2013-03-15 23:22:00,34.9,26.1,29.76,North,0,3.4,3.8,70,0.00,,---,0.00,VWS V14.01,2013-03-16 05:22:00,
2013-03-15 23:23:00,34.0,25.6,29.76,NNW,338,2.2,3.4,71,0.00,,---,0.00,VWS V14.01,2013-03-16 05:23:00,
2013-03-15 23:24:00,34.0,25.6,29.76,NW,315,1.3,2.7,71,0.00,,---,0.00,VWS V14.01,2013-03-16 05:24:00,
2013-03-15 23:25:00,34.0,25.2,29.76,North,0,1.1,1.6,70,0.00,,---,0.00,VWS V14.01,2013-03-16 05:25:00,
2013-03-15 23:26:00,34.0,25.2,29.76,NNW,338,3.8,3.8,70,0.00,,---,0.00,VWS V14.01,2013-03-16 05:26:00,
2013-03-15 23:27:00,34.7,26.3,29.76,NNW,338,5.6,5.6,71,0.00,,---,0.00,VWS V14.01,2013-03-16 05:27:00,
2013-03-15 23:28:00,33.8,25.4,29.76,NNW,338,1.6,2.7,71,0.00,,---,0.00,VWS V14.01,2013-03-16 05:28:00,
2013-03-15 23:29:00,33.8,25.4,29.76,NNE,22,0.0,1.6,71,0.00,,---,0.00,VWS V14.01,2013-03-16 05:29:00,
2013-03-15 23:30:00,33.8,25.1,29.80,NW,315,2.9,2.9,70,0.00,,---,0.00,VWS V14.01,2013-03-16 05:30:00,
2013-03-15 23:31:00,33.8,25.4,29.80,NW,315,2.7,3.4,71,0.00,,---,0.00,VWS V14.01,2013-03-16 05:31:00,
2013-03-15 23:32:00,34.5,26.1,29.76,North,0,2.0,2.7,71,0.00,,---,0.00,VWS V14.01,2013-03-16 05:32:00,
2013-03-15 23:33:00,33.8,25.4,29.80,West,270,2.2,2.9,71,0.00,,---,0.00,VWS V14.01,2013-03-16 05:33:00,
2013-03-15 23:34:00,33.8,25.4,29.80,NNW,338,2.0,2.2,71,0.00,,---,0.00,VWS V14.01,2013-03-16 05:34:00,
2013-03-15 23:35:00,33.8,25.4,29.80,NNW,338,2.2,2.9,71,0.00,,---,0.00,VWS V14.01,2013-03-16 05:35:00,
2013-03-15 23:36:00,33.8,25.4,29.80,WNW,292,2.5,2.7,71,0.00,,---,0.00,VWS V14.01,2013-03-16 05:36:00,
2013-03-15 23:37:00,34.3,25.9,29.76,North,0,4.9,4.9,71,0.00,,---,0.00,VWS V14.01,2013-03-16 05:37:00,
2013-03-15 23:38:00,33.8,25.4,29.80,NNW,338,2.7,3.6,71,0.00,,---,0.00,VWS V14.01,2013-03-16 05:38:00,
2013-03-15 23:39:00,33.8,25.4,29.80,North,0,1.1,3.4,71,0.00,,---,0.00,VWS V14.01,2013-03-16 05:39:00,
2013-03-15 23:40:00,33.8,25.4,29.80,ENE,68,1.6,2.7,71,0.00,,---,0.00,VWS V14.01,2013-03-16 05:40:00,
2013-03-15 23:41:00,33.8,25.4,29.80,NW,315,2.7,2.7,71,0.00,,---,0.00,VWS V14.01,2013-03-16 05:41:00,
2013-03-15 23:42:00,34.3,25.9,29.76,ENE,68,4.7,4.7,71,0.00,,---,0.00,VWS V14.01,2013-03-16 05:42:00,
2013-03-15 23:43:00,33.8,25.4,29.80,NNW,338,1.6,1.6,71,0.00,,---,0.00,VWS V14.01,2013-03-16 05:43:00,
2013-03-15 23:44:00,33.8,25.1,29.80,NW,315,1.3,1.6,70,0.00,,---,0.00,VWS V14.01,2013-03-16 05:44:00,
2013-03-15 23:45:00,33.6,25.2,29.80,NNW,338,2.0,2.9,71,0.00,,---,0.00,VWS V14.01,2013-03-16 05:45:00,
2013-03-15 23:46:00,33.6,25.2,29.80,NW,315,1.6,2.0,71,0.00,,---,0.00,VWS V14.01,2013-03-16 05:46:00,
2013-03-15 23:47:00,34.2,25.8,29.79,NNW,338,2.5,2.9,71,0.00,,---,0.00,VWS V14.01,2013-03-16 05:47:00,
2013-03-15 23:48:00,33.6,25.2,29.80,NNW,338,2.2,3.4,71,0.00,,---,0.00,VWS V14.01,2013-03-16 05:48:00,
2013-03-15 23:49:00,33.6,25.2,29.80,NNW,338,1.3,2.7,71,0.00,,---,0.00,VWS V14.01,2013-03-16 05:49:00,
2013-03-15 23:50:00,33.6,25.2,29.80,NNW,338,3.6,3.6,71,0.00,,---,0.00,VWS V14.01,2013-03-16 05:50:00,
2013-03-15 23:51:00,33.6,25.2,29.80,NNW,338,2.0,3.6,71,0.00,,---,0.00,VWS V14.01,2013-03-16 05:51:00,
2013-03-15 23:52:00,34.3,26.3,29.79,WNW,292,2.0,5.6,72,0.00,,---,0.00,VWS V14.01,2013-03-16 05:52:00,
2013-03-15 23:53:00,33.6,25.2,29.80,NNE,22,1.6,3.1,71,0.00,,---,0.00,VWS V14.01,2013-03-16 05:53:00,
2013-03-15 23:54:00,33.6,25.2,29.80,NNW,338,1.3,1.6,71,0.00,,---,0.00,VWS V14.01,2013-03-16 05:54:00,
2013-03-15 23:55:00,33.6,25.2,29.80,NNW,338,3.8,3.8,71,0.00,,---,0.00,VWS V14.01,2013-03-16 05:55:00,
2013-03-15 23:56:00,33.6,25.6,29.80,NNW,338,3.4,4.0,72,0.00,,---,0.00,VWS V14.01,2013-03-16 05:56:00,
2013-03-15 23:57:00,34.3,25.9,29.79,North,0,3.4,4.0,71,0.00,,---,0.00,VWS V14.01,2013-03-16 05:57:00,
2013-03-15 23:58:00,33.4,25.4,29.80,NNW,338,0.0,3.1,72,0.00,,---,0.00,VWS V14.01,2013-03-16 05:58:00,
2013-03-15 23:59:00,33.6,25.6,29.80,NNW,338,2.7,2.7,72,0.00,,---,0.00,VWS V14.01,2013-03-16 05:59:00,